sensor_id;sensor_type;location;lat;lon;timestamp;P1;durP1;ratioP1;P2;durP2;ratioP2
2338;SDS011;1180;51.438;6.978;2022-12-07T00:01:26;11.97;;;10.80;;
2338;SDS011;1180;51.438;6.978;2022-12-07T00:03:54;12.40;;;11.10;;
2338;SDS011;1180;51.438;6.978;2022-12-07T00:06:25;14.37;;;11.70;;
2338;SDS011;1180;51.438;6.978;2022-12-07T00:08:51;12.40;;;11.13;;
2338;SDS011;1180;51.438;6.978;2022-12-07T00:11:20;13.40;;;11.53;;
2338;SDS011;1180;51.438;6.978;2022-12-07T00:13:47;12.80;;;11.50;;
2338;SDS011;1180;51.438;6.978;2022-12-07T00:16:17;14.73;;;11.43;;
2338;SDS011;1180;51.438;6.978;2022-12-07T00:18:44;16.30;;;13.00;;
2338;SDS011;1180;51.438;6.978;2022-12-07T00:21:14;13.80;;;12.43;;
2338;SDS011;1180;51.438;6.978;2022-12-07T00:23:42;16.57;;;12.00;;
2338;SDS011;1180;51.438;6.978;2022-12-07T00:26:16;14.40;;;12.93;;
2338;SDS011;1180;51.438;6.978;2022-12-07T00:28:46;15.70;;;13.20;;
2338;SDS011;1180;51.438;6.978;2022-12-07T00:31:13;14.53;;;13.03;;
2338;SDS011;1180;51.438;6.978;2022-12-07T00:33:40;16.37;;;14.10;;
2338;SDS011;1180;51.438;6.978;2022-12-07T00:36:07;17.47;;;12.80;;
2338;SDS011;1180;51.438;6.978;2022-12-07T00:38:35;17.80;;;14.53;;
2338;SDS011;1180;51.438;6.978;2022-12-07T00:41:03;13.17;;;11.97;;
2338;SDS011;1180;51.438;6.978;2022-12-07T00:43:31;14.57;;;13.07;;
2338;SDS011;1180;51.438;6.978;2022-12-07T00:45:56;15.30;;;13.70;;
2338;SDS011;1180;51.438;6.978;2022-12-07T00:48:22;15.60;;;14.00;;
2338;SDS011;1180;51.438;6.978;2022-12-07T00:50:48;14.93;;;13.30;;
2338;SDS011;1180;51.438;6.978;2022-12-07T00:53:14;18.30;;;15.00;;
2338;SDS011;1180;51.438;6.978;2022-12-07T00:55:40;15.53;;;14.00;;
2338;SDS011;1180;51.438;6.978;2022-12-07T00:58:06;17.67;;;14.80;;
2338;SDS011;1180;51.438;6.978;2022-12-07T01:00:31;17.00;;;15.30;;
2338;SDS011;1180;51.438;6.978;2022-12-07T01:03:07;17.70;;;14.50;;
2338;SDS011;1180;51.438;6.978;2022-12-07T01:05:34;15.97;;;14.37;;
2338;SDS011;1180;51.438;6.978;2022-12-07T01:08:00;15.87;;;14.17;;
2338;SDS011;1180;51.438;6.978;2022-12-07T01:10:26;17.10;;;15.27;;
2338;SDS011;1180;51.438;6.978;2022-12-07T01:12:51;17.73;;;15.57;;
2338;SDS011;1180;51.438;6.978;2022-12-07T01:15:16;22.63;;;17.60;;
2338;SDS011;1180;51.438;6.978;2022-12-07T01:17:42;21.57;;;18.33;;
2338;SDS011;1180;51.438;6.978;2022-12-07T01:20:07;19.33;;;17.30;;
2338;SDS011;1180;51.438;6.978;2022-12-07T01:22:40;26.33;;;20.07;;
2338;SDS011;1180;51.438;6.978;2022-12-07T01:25:06;19.87;;;17.87;;
2338;SDS011;1180;51.438;6.978;2022-12-07T01:27:33;17.80;;;15.97;;
2338;SDS011;1180;51.438;6.978;2022-12-07T01:29:59;19.77;;;17.43;;
2338;SDS011;1180;51.438;6.978;2022-12-07T01:32:25;23.40;;;18.60;;
2338;SDS011;1180;51.438;6.978;2022-12-07T01:34:50;21.27;;;17.20;;
2338;SDS011;1180;51.438;6.978;2022-12-07T01:37:15;20.40;;;17.40;;
2338;SDS011;1180;51.438;6.978;2022-12-07T01:39:41;23.33;;;18.87;;
2338;SDS011;1180;51.438;6.978;2022-12-07T01:42:10;22.70;;;17.70;;
2338;SDS011;1180;51.438;6.978;2022-12-07T01:47:38;22.97;;;19.70;;
2338;SDS011;1180;51.438;6.978;2022-12-07T01:50:05;22.40;;;17.50;;
2338;SDS011;1180;51.438;6.978;2022-12-07T01:52:31;21.33;;;18.43;;
2338;SDS011;1180;51.438;6.978;2022-12-07T01:55:02;21.63;;;18.03;;
2338;SDS011;1180;51.438;6.978;2022-12-07T01:57:31;20.47;;;17.77;;
2338;SDS011;1180;51.438;6.978;2022-12-07T01:59:59;20.23;;;17.47;;
2338;SDS011;1180;51.438;6.978;2022-12-07T02:02:26;23.33;;;17.57;;
2338;SDS011;1180;51.438;6.978;2022-12-07T02:04:56;21.97;;;17.77;;
2338;SDS011;1180;51.438;6.978;2022-12-07T02:07:24;21.63;;;18.47;;
2338;SDS011;1180;51.438;6.978;2022-12-07T02:09:50;23.20;;;19.00;;
2338;SDS011;1180;51.438;6.978;2022-12-07T02:12:16;21.63;;;19.40;;
2338;SDS011;1180;51.438;6.978;2022-12-07T02:14:42;25.50;;;20.53;;
2338;SDS011;1180;51.438;6.978;2022-12-07T02:17:11;27.63;;;18.83;;
2338;SDS011;1180;51.438;6.978;2022-12-07T02:23:07;28.77;;;19.87;;
2338;SDS011;1180;51.438;6.978;2022-12-07T02:30:45;25.70;;;20.30;;
2338;SDS011;1180;51.438;6.978;2022-12-07T02:33:19;26.87;;;20.70;;
2338;SDS011;1180;51.438;6.978;2022-12-07T02:36:00;25.17;;;18.37;;
2338;SDS011;1180;51.438;6.978;2022-12-07T02:38:45;27.33;;;19.87;;
2338;SDS011;1180;51.438;6.978;2022-12-07T02:41:14;26.57;;;18.80;;
2338;SDS011;1180;51.438;6.978;2022-12-07T02:43:45;22.33;;;17.87;;
2338;SDS011;1180;51.438;6.978;2022-12-07T02:46:29;22.00;;;18.03;;
2338;SDS011;1180;51.438;6.978;2022-12-07T02:48:57;20.17;;;17.33;;
2338;SDS011;1180;51.438;6.978;2022-12-07T02:51:24;23.30;;;16.90;;
2338;SDS011;1180;51.438;6.978;2022-12-07T02:53:51;20.87;;;16.70;;
2338;SDS011;1180;51.438;6.978;2022-12-07T02:56:35;22.83;;;16.40;;
2338;SDS011;1180;51.438;6.978;2022-12-07T03:10:03;23.40;;;18.53;;
2338;SDS011;1180;51.438;6.978;2022-12-07T03:12:39;22.60;;;15.53;;
2338;SDS011;1180;51.438;6.978;2022-12-07T03:15:40;22.80;;;17.00;;
2338;SDS011;1180;51.438;6.978;2022-12-07T03:18:12;18.77;;;16.87;;
2338;SDS011;1180;51.438;6.978;2022-12-07T03:20:40;21.07;;;17.23;;
2338;SDS011;1180;51.438;6.978;2022-12-07T03:23:11;21.10;;;16.53;;
2338;SDS011;1180;51.438;6.978;2022-12-07T03:25:41;20.93;;;16.23;;
2338;SDS011;1180;51.438;6.978;2022-12-07T03:28:10;19.73;;;17.27;;
2338;SDS011;1180;51.438;6.978;2022-12-07T03:36:35;18.90;;;15.70;;
2338;SDS011;1180;51.438;6.978;2022-12-07T03:41:58;18.13;;;16.00;;
2338;SDS011;1180;51.438;6.978;2022-12-07T03:44:25;15.70;;;13.70;;
2338;SDS011;1180;51.438;6.978;2022-12-07T03:49:45;16.93;;;14.80;;
2338;SDS011;1180;51.438;6.978;2022-12-07T03:52:37;15.80;;;13.67;;
2338;SDS011;1180;51.438;6.978;2022-12-07T03:55:24;22.17;;;17.13;;
2338;SDS011;1180;51.438;6.978;2022-12-07T03:57:54;19.57;;;16.40;;
2338;SDS011;1180;51.438;6.978;2022-12-07T04:00:23;24.20;;;16.20;;
2338;SDS011;1180;51.438;6.978;2022-12-07T04:02:51;17.40;;;15.30;;
2338;SDS011;1180;51.438;6.978;2022-12-07T04:05:17;20.53;;;15.97;;
2338;SDS011;1180;51.438;6.978;2022-12-07T04:07:42;20.93;;;16.70;;
2338;SDS011;1180;51.438;6.978;2022-12-07T04:10:08;23.90;;;17.00;;
2338;SDS011;1180;51.438;6.978;2022-12-07T04:12:34;20.87;;;16.20;;
2338;SDS011;1180;51.438;6.978;2022-12-07T04:14:59;20.40;;;16.60;;
2338;SDS011;1180;51.438;6.978;2022-12-07T04:17:24;20.00;;;14.20;;
2338;SDS011;1180;51.438;6.978;2022-12-07T04:19:50;14.50;;;13.00;;
2338;SDS011;1180;51.438;6.978;2022-12-07T04:22:15;15.90;;;14.30;;
2338;SDS011;1180;51.438;6.978;2022-12-07T04:24:40;16.00;;;13.23;;
2338;SDS011;1180;51.438;6.978;2022-12-07T04:27:06;16.70;;;13.23;;
2338;SDS011;1180;51.438;6.978;2022-12-07T04:29:31;17.47;;;12.57;;
2338;SDS011;1180;51.438;6.978;2022-12-07T04:31:56;19.20;;;14.93;;
2338;SDS011;1180;51.438;6.978;2022-12-07T04:34:22;15.77;;;12.80;;
2338;SDS011;1180;51.438;6.978;2022-12-07T04:36:47;17.63;;;13.30;;
2338;SDS011;1180;51.438;6.978;2022-12-07T04:39:18;14.53;;;12.10;;
2338;SDS011;1180;51.438;6.978;2022-12-07T04:41:48;13.90;;;12.20;;
2338;SDS011;1180;51.438;6.978;2022-12-07T04:44:14;13.30;;;11.60;;
2338;SDS011;1180;51.438;6.978;2022-12-07T04:46:40;14.30;;;12.40;;
2338;SDS011;1180;51.438;6.978;2022-12-07T04:49:06;15.70;;;12.67;;
2338;SDS011;1180;51.438;6.978;2022-12-07T04:51:31;16.00;;;12.20;;
2338;SDS011;1180;51.438;6.978;2022-12-07T04:53:57;12.97;;;11.40;;
2338;SDS011;1180;51.438;6.978;2022-12-07T04:56:23;14.83;;;12.13;;
2338;SDS011;1180;51.438;6.978;2022-12-07T04:58:49;12.93;;;11.53;;
2338;SDS011;1180;51.438;6.978;2022-12-07T05:01:17;14.17;;;12.60;;
2338;SDS011;1180;51.438;6.978;2022-12-07T05:03:43;13.03;;;11.73;;
2338;SDS011;1180;51.438;6.978;2022-12-07T05:06:09;14.07;;;12.10;;
2338;SDS011;1180;51.438;6.978;2022-12-07T05:08:36;16.47;;;12.23;;
2338;SDS011;1180;51.438;6.978;2022-12-07T05:11:05;12.83;;;11.60;;
2338;SDS011;1180;51.438;6.978;2022-12-07T05:13:32;15.60;;;11.77;;
2338;SDS011;1180;51.438;6.978;2022-12-07T05:15:58;18.20;;;11.97;;
2338;SDS011;1180;51.438;6.978;2022-12-07T05:18:23;13.90;;;11.23;;
2338;SDS011;1180;51.438;6.978;2022-12-07T05:20:49;15.53;;;12.03;;
2338;SDS011;1180;51.438;6.978;2022-12-07T05:23:15;13.70;;;11.30;;
2338;SDS011;1180;51.438;6.978;2022-12-07T05:25:41;12.80;;;10.80;;
2338;SDS011;1180;51.438;6.978;2022-12-07T05:28:06;14.90;;;11.17;;
2338;SDS011;1180;51.438;6.978;2022-12-07T05:30:32;14.70;;;11.63;;
2338;SDS011;1180;51.438;6.978;2022-12-07T05:32:57;18.13;;;13.43;;
2338;SDS011;1180;51.438;6.978;2022-12-07T05:35:23;12.20;;;10.93;;
2338;SDS011;1180;51.438;6.978;2022-12-07T05:37:49;12.20;;;10.90;;
2338;SDS011;1180;51.438;6.978;2022-12-07T05:40:15;13.30;;;10.70;;
2338;SDS011;1180;51.438;6.978;2022-12-07T05:42:41;16.17;;;10.93;;
2338;SDS011;1180;51.438;6.978;2022-12-07T05:45:07;13.90;;;11.70;;
2338;SDS011;1180;51.438;6.978;2022-12-07T05:47:34;12.97;;;11.63;;
2338;SDS011;1180;51.438;6.978;2022-12-07T05:49:59;15.17;;;12.60;;
2338;SDS011;1180;51.438;6.978;2022-12-07T05:52:24;14.60;;;10.70;;
2338;SDS011;1180;51.438;6.978;2022-12-07T05:54:50;16.97;;;11.00;;
2338;SDS011;1180;51.438;6.978;2022-12-07T05:57:16;15.50;;;12.40;;
2338;SDS011;1180;51.438;6.978;2022-12-07T05:59:41;15.03;;;11.87;;
2338;SDS011;1180;51.438;6.978;2022-12-07T06:02:10;20.70;;;11.57;;
2338;SDS011;1180;51.438;6.978;2022-12-07T06:04:39;16.53;;;11.37;;
2338;SDS011;1180;51.438;6.978;2022-12-07T06:07:08;14.40;;;12.20;;
2338;SDS011;1180;51.438;6.978;2022-12-07T06:09:34;12.27;;;10.43;;
2338;SDS011;1180;51.438;6.978;2022-12-07T06:12:00;12.60;;;10.27;;
2338;SDS011;1180;51.438;6.978;2022-12-07T06:14:44;11.40;;;9.80;;
2338;SDS011;1180;51.438;6.978;2022-12-07T06:17:10;11.13;;;9.87;;
2338;SDS011;1180;51.438;6.978;2022-12-07T06:19:37;12.83;;;10.90;;
2338;SDS011;1180;51.438;6.978;2022-12-07T06:22:03;12.80;;;9.90;;
2338;SDS011;1180;51.438;6.978;2022-12-07T06:24:29;14.00;;;10.80;;
2338;SDS011;1180;51.438;6.978;2022-12-07T06:26:55;13.53;;;10.13;;
2338;SDS011;1180;51.438;6.978;2022-12-07T06:29:21;13.60;;;10.77;;
2338;SDS011;1180;51.438;6.978;2022-12-07T06:31:47;13.23;;;9.97;;
2338;SDS011;1180;51.438;6.978;2022-12-07T06:34:14;15.53;;;10.63;;
2338;SDS011;1180;51.438;6.978;2022-12-07T06:36:41;11.30;;;10.10;;
2338;SDS011;1180;51.438;6.978;2022-12-07T06:39:06;11.93;;;9.23;;
2338;SDS011;1180;51.438;6.978;2022-12-07T06:41:34;12.00;;;10.33;;
2338;SDS011;1180;51.438;6.978;2022-12-07T06:44:00;16.70;;;10.50;;
2338;SDS011;1180;51.438;6.978;2022-12-07T06:46:25;12.13;;;10.20;;
2338;SDS011;1180;51.438;6.978;2022-12-07T06:48:50;12.70;;;9.70;;
2338;SDS011;1180;51.438;6.978;2022-12-07T06:51:16;11.73;;;9.50;;
2338;SDS011;1180;51.438;6.978;2022-12-07T06:53:42;12.33;;;11.03;;
2338;SDS011;1180;51.438;6.978;2022-12-07T06:56:08;12.47;;;10.40;;
2338;SDS011;1180;51.438;6.978;2022-12-07T06:58:36;16.60;;;10.03;;
2338;SDS011;1180;51.438;6.978;2022-12-07T07:01:02;10.60;;;9.10;;
2338;SDS011;1180;51.438;6.978;2022-12-07T07:03:33;15.87;;;11.20;;
2338;SDS011;1180;51.438;6.978;2022-12-07T07:05:58;15.03;;;9.80;;
2338;SDS011;1180;51.438;6.978;2022-12-07T07:08:23;15.07;;;9.70;;
2338;SDS011;1180;51.438;6.978;2022-12-07T07:10:49;11.20;;;9.70;;
2338;SDS011;1180;51.438;6.978;2022-12-07T07:13:14;11.80;;;9.67;;
2338;SDS011;1180;51.438;6.978;2022-12-07T07:15:40;12.00;;;9.23;;
2338;SDS011;1180;51.438;6.978;2022-12-07T07:18:05;16.80;;;9.83;;
2338;SDS011;1180;51.438;6.978;2022-12-07T07:20:30;12.57;;;10.27;;
2338;SDS011;1180;51.438;6.978;2022-12-07T07:22:56;11.70;;;9.30;;
2338;SDS011;1180;51.438;6.978;2022-12-07T07:25:22;9.00;;;7.60;;
2338;SDS011;1180;51.438;6.978;2022-12-07T07:27:48;10.20;;;8.10;;
2338;SDS011;1180;51.438;6.978;2022-12-07T07:30:13;10.10;;;9.10;;
2338;SDS011;1180;51.438;6.978;2022-12-07T07:32:39;12.10;;;8.77;;
2338;SDS011;1180;51.438;6.978;2022-12-07T07:35:05;13.13;;;9.00;;
2338;SDS011;1180;51.438;6.978;2022-12-07T07:37:30;13.53;;;9.53;;
2338;SDS011;1180;51.438;6.978;2022-12-07T07:39:56;11.17;;;8.17;;
2338;SDS011;1180;51.438;6.978;2022-12-07T07:42:21;11.83;;;9.30;;
2338;SDS011;1180;51.438;6.978;2022-12-07T07:44:47;15.50;;;9.90;;
2338;SDS011;1180;51.438;6.978;2022-12-07T07:47:12;12.53;;;8.90;;
2338;SDS011;1180;51.438;6.978;2022-12-07T07:49:38;10.40;;;9.07;;
2338;SDS011;1180;51.438;6.978;2022-12-07T07:52:04;13.43;;;8.47;;
2338;SDS011;1180;51.438;6.978;2022-12-07T07:54:30;10.30;;;8.80;;
2338;SDS011;1180;51.438;6.978;2022-12-07T07:56:56;11.17;;;9.20;;
2338;SDS011;1180;51.438;6.978;2022-12-07T07:59:21;12.70;;;9.03;;
2338;SDS011;1180;51.438;6.978;2022-12-07T08:01:47;10.80;;;9.20;;
2338;SDS011;1180;51.438;6.978;2022-12-07T08:04:12;11.33;;;9.20;;
2338;SDS011;1180;51.438;6.978;2022-12-07T08:06:37;16.13;;;11.10;;
2338;SDS011;1180;51.438;6.978;2022-12-07T08:09:03;9.93;;;8.40;;
2338;SDS011;1180;51.438;6.978;2022-12-07T08:11:30;10.50;;;8.90;;
2338;SDS011;1180;51.438;6.978;2022-12-07T08:13:55;14.43;;;8.20;;
2338;SDS011;1180;51.438;6.978;2022-12-07T08:16:21;12.77;;;9.20;;
2338;SDS011;1180;51.438;6.978;2022-12-07T08:18:46;11.30;;;8.17;;
2338;SDS011;1180;51.438;6.978;2022-12-07T08:21:13;11.57;;;8.60;;
2338;SDS011;1180;51.438;6.978;2022-12-07T08:27:02;11.00;;;8.43;;
2338;SDS011;1180;51.438;6.978;2022-12-07T08:29:28;11.20;;;9.13;;
2338;SDS011;1180;51.438;6.978;2022-12-07T08:31:53;10.73;;;9.50;;
2338;SDS011;1180;51.438;6.978;2022-12-07T08:34:19;9.50;;;8.60;;
2338;SDS011;1180;51.438;6.978;2022-12-07T08:36:44;14.90;;;9.13;;
2338;SDS011;1180;51.438;6.978;2022-12-07T08:39:09;10.00;;;8.50;;
2338;SDS011;1180;51.438;6.978;2022-12-07T08:41:35;11.23;;;8.20;;
2338;SDS011;1180;51.438;6.978;2022-12-07T08:44:00;11.27;;;8.00;;
2338;SDS011;1180;51.438;6.978;2022-12-07T08:47:08;11.80;;;9.57;;
2338;SDS011;1180;51.438;6.978;2022-12-07T08:49:22;11.70;;;8.77;;
2338;SDS011;1180;51.438;6.978;2022-12-07T08:51:52;10.03;;;8.40;;
2338;SDS011;1180;51.438;6.978;2022-12-07T08:54:19;10.97;;;8.33;;
2338;SDS011;1180;51.438;6.978;2022-12-07T08:56:45;12.10;;;8.20;;
2338;SDS011;1180;51.438;6.978;2022-12-07T08:59:12;13.57;;;8.30;;
2338;SDS011;1180;51.438;6.978;2022-12-07T09:01:40;10.83;;;7.90;;
2338;SDS011;1180;51.438;6.978;2022-12-07T09:04:06;11.97;;;7.17;;
2338;SDS011;1180;51.438;6.978;2022-12-07T09:06:31;16.40;;;8.30;;
2338;SDS011;1180;51.438;6.978;2022-12-07T09:08:58;10.33;;;7.30;;
2338;SDS011;1180;51.438;6.978;2022-12-07T09:11:26;11.40;;;8.57;;
2338;SDS011;1180;51.438;6.978;2022-12-07T09:13:51;8.27;;;7.30;;
2338;SDS011;1180;51.438;6.978;2022-12-07T09:16:17;9.17;;;7.97;;
2338;SDS011;1180;51.438;6.978;2022-12-07T09:18:42;10.83;;;7.67;;
2338;SDS011;1180;51.438;6.978;2022-12-07T09:21:08;10.90;;;8.07;;
2338;SDS011;1180;51.438;6.978;2022-12-07T09:23:33;9.90;;;8.27;;
2338;SDS011;1180;51.438;6.978;2022-12-07T09:26:02;9.33;;;8.30;;
2338;SDS011;1180;51.438;6.978;2022-12-07T09:28:32;10.60;;;9.40;;
2338;SDS011;1180;51.438;6.978;2022-12-07T09:30:57;12.63;;;8.97;;
2338;SDS011;1180;51.438;6.978;2022-12-07T09:33:23;9.37;;;8.43;;
2338;SDS011;1180;51.438;6.978;2022-12-07T09:35:49;9.57;;;7.87;;
2338;SDS011;1180;51.438;6.978;2022-12-07T09:38:15;13.80;;;8.07;;
2338;SDS011;1180;51.438;6.978;2022-12-07T09:40:41;8.63;;;7.63;;
2338;SDS011;1180;51.438;6.978;2022-12-07T09:43:15;9.70;;;8.50;;
2338;SDS011;1180;51.438;6.978;2022-12-07T09:45:44;10.73;;;7.70;;
2338;SDS011;1180;51.438;6.978;2022-12-07T09:48:44;8.20;;;6.97;;
2338;SDS011;1180;51.438;6.978;2022-12-07T09:51:12;15.87;;;7.87;;
2338;SDS011;1180;51.438;6.978;2022-12-07T09:53:38;8.73;;;7.80;;
2338;SDS011;1180;51.438;6.978;2022-12-07T09:56:04;9.33;;;7.40;;
2338;SDS011;1180;51.438;6.978;2022-12-07T09:58:31;13.27;;;7.70;;
2338;SDS011;1180;51.438;6.978;2022-12-07T10:01:00;13.17;;;7.13;;
2338;SDS011;1180;51.438;6.978;2022-12-07T10:03:35;11.40;;;7.83;;
2338;SDS011;1180;51.438;6.978;2022-12-07T10:06:04;11.80;;;7.63;;
2338;SDS011;1180;51.438;6.978;2022-12-07T10:08:31;14.07;;;7.77;;
2338;SDS011;1180;51.438;6.978;2022-12-07T10:10:57;12.13;;;7.13;;
2338;SDS011;1180;51.438;6.978;2022-12-07T10:13:35;10.00;;;7.43;;
2338;SDS011;1180;51.438;6.978;2022-12-07T10:16:06;7.23;;;6.47;;
2338;SDS011;1180;51.438;6.978;2022-12-07T10:18:52;7.57;;;6.53;;
2338;SDS011;1180;51.438;6.978;2022-12-07T10:21:25;9.97;;;7.03;;
2338;SDS011;1180;51.438;6.978;2022-12-07T10:31:49;8.97;;;6.57;;
2338;SDS011;1180;51.438;6.978;2022-12-07T10:36:47;9.13;;;5.80;;
2338;SDS011;1180;51.438;6.978;2022-12-07T10:39:19;10.43;;;6.20;;
2338;SDS011;1180;51.438;6.978;2022-12-07T10:41:52;9.27;;;6.30;;
2338;SDS011;1180;51.438;6.978;2022-12-07T10:44:21;7.73;;;5.80;;
2338;SDS011;1180;51.438;6.978;2022-12-07T10:51:53;12.53;;;5.20;;
2338;SDS011;1180;51.438;6.978;2022-12-07T11:10:26;7.97;;;5.10;;
2338;SDS011;1180;51.438;6.978;2022-12-07T11:18:18;8.30;;;6.57;;
2338;SDS011;1180;51.438;6.978;2022-12-07T11:20:56;6.87;;;5.60;;
2338;SDS011;1180;51.438;6.978;2022-12-07T11:26:18;10.03;;;4.80;;
2338;SDS011;1180;51.438;6.978;2022-12-07T11:37:16;6.50;;;4.80;;
2338;SDS011;1180;51.438;6.978;2022-12-07T11:39:50;9.23;;;4.67;;
2338;SDS011;1180;51.438;6.978;2022-12-07T11:42:21;10.30;;;5.77;;
2338;SDS011;1180;51.438;6.978;2022-12-07T11:44:53;8.47;;;6.50;;
2338;SDS011;1180;51.438;6.978;2022-12-07T11:47:35;9.97;;;6.03;;
2338;SDS011;1180;51.438;6.978;2022-12-07T11:50:24;8.77;;;6.60;;
2338;SDS011;1180;51.438;6.978;2022-12-07T11:56:33;8.90;;;5.33;;
2338;SDS011;1180;51.438;6.978;2022-12-07T12:03:52;8.60;;;4.60;;
2338;SDS011;1180;51.438;6.978;2022-12-07T12:06:21;4.73;;;4.20;;
2338;SDS011;1180;51.438;6.978;2022-12-07T12:14:36;8.03;;;5.80;;
2338;SDS011;1180;51.438;6.978;2022-12-07T12:17:14;7.40;;;4.77;;
2338;SDS011;1180;51.438;6.978;2022-12-07T12:22:23;7.67;;;3.83;;
2338;SDS011;1180;51.438;6.978;2022-12-07T12:24:57;8.23;;;3.77;;
2338;SDS011;1180;51.438;6.978;2022-12-07T12:27:25;8.80;;;3.70;;
2338;SDS011;1180;51.438;6.978;2022-12-07T12:29:56;4.27;;;3.10;;
2338;SDS011;1180;51.438;6.978;2022-12-07T12:32:41;4.43;;;3.20;;
2338;SDS011;1180;51.438;6.978;2022-12-07T12:40:44;6.13;;;3.60;;
2338;SDS011;1180;51.438;6.978;2022-12-07T12:51:39;6.40;;;4.30;;
2338;SDS011;1180;51.438;6.978;2022-12-07T13:01:47;6.73;;;4.77;;
2338;SDS011;1180;51.438;6.978;2022-12-07T13:04:16;6.23;;;4.03;;
2338;SDS011;1180;51.438;6.978;2022-12-07T13:06:50;7.73;;;3.27;;
2338;SDS011;1180;51.438;6.978;2022-12-07T13:09:17;7.57;;;4.23;;
2338;SDS011;1180;51.438;6.978;2022-12-07T13:11:49;9.70;;;3.23;;
2338;SDS011;1180;51.438;6.978;2022-12-07T13:14:39;3.90;;;2.77;;
2338;SDS011;1180;51.438;6.978;2022-12-07T13:17:09;5.33;;;3.10;;
2338;SDS011;1180;51.438;6.978;2022-12-07T13:22:52;9.83;;;3.10;;
2338;SDS011;1180;51.438;6.978;2022-12-07T13:25:38;6.83;;;3.20;;
2338;SDS011;1180;51.438;6.978;2022-12-07T13:28:00;3.50;;;3.20;;
2338;SDS011;1180;51.438;6.978;2022-12-07T13:30:34;7.53;;;3.50;;
2338;SDS011;1180;51.438;6.978;2022-12-07T13:33:17;7.27;;;3.00;;
2338;SDS011;1180;51.438;6.978;2022-12-07T13:35:43;7.20;;;3.07;;
2338;SDS011;1180;51.438;6.978;2022-12-07T13:38:19;6.87;;;3.47;;
2338;SDS011;1180;51.438;6.978;2022-12-07T13:43:43;4.87;;;3.63;;
2338;SDS011;1180;51.438;6.978;2022-12-07T13:46:10;11.20;;;3.30;;
2338;SDS011;1180;51.438;6.978;2022-12-07T13:48:50;9.80;;;3.67;;
2338;SDS011;1180;51.438;6.978;2022-12-07T13:51:21;4.43;;;2.50;;
2338;SDS011;1180;51.438;6.978;2022-12-07T13:53:53;5.33;;;3.50;;
2338;SDS011;1180;51.438;6.978;2022-12-07T13:56:28;5.57;;;3.50;;
2338;SDS011;1180;51.438;6.978;2022-12-07T13:58:58;4.43;;;4.00;;
2338;SDS011;1180;51.438;6.978;2022-12-07T14:01:24;5.80;;;3.83;;
2338;SDS011;1180;51.438;6.978;2022-12-07T14:03:50;3.97;;;2.93;;
2338;SDS011;1180;51.438;6.978;2022-12-07T14:06:25;3.80;;;3.47;;
2338;SDS011;1180;51.438;6.978;2022-12-07T14:09:05;4.50;;;2.83;;
2338;SDS011;1180;51.438;6.978;2022-12-07T14:11:32;6.63;;;4.37;;
2338;SDS011;1180;51.438;6.978;2022-12-07T14:13:58;7.40;;;3.67;;
2338;SDS011;1180;51.438;6.978;2022-12-07T14:16:30;5.17;;;2.70;;
2338;SDS011;1180;51.438;6.978;2022-12-07T14:18:58;5.13;;;3.07;;
2338;SDS011;1180;51.438;6.978;2022-12-07T14:21:29;10.27;;;3.40;;
2338;SDS011;1180;51.438;6.978;2022-12-07T14:24:16;6.27;;;3.33;;
2338;SDS011;1180;51.438;6.978;2022-12-07T14:26:44;5.73;;;3.10;;
2338;SDS011;1180;51.438;6.978;2022-12-07T14:31:52;5.40;;;2.90;;
2338;SDS011;1180;51.438;6.978;2022-12-07T14:34:21;5.40;;;3.60;;
2338;SDS011;1180;51.438;6.978;2022-12-07T14:36:47;4.50;;;3.13;;
2338;SDS011;1180;51.438;6.978;2022-12-07T14:39:13;6.37;;;4.43;;
2338;SDS011;1180;51.438;6.978;2022-12-07T14:41:38;5.87;;;3.97;;
2338;SDS011;1180;51.438;6.978;2022-12-07T14:44:15;6.60;;;3.73;;
2338;SDS011;1180;51.438;6.978;2022-12-07T14:46:42;5.70;;;2.90;;
2338;SDS011;1180;51.438;6.978;2022-12-07T14:49:07;7.90;;;3.30;;
2338;SDS011;1180;51.438;6.978;2022-12-07T14:51:33;6.53;;;3.97;;
2338;SDS011;1180;51.438;6.978;2022-12-07T14:54:03;7.40;;;3.47;;
2338;SDS011;1180;51.438;6.978;2022-12-07T14:56:29;3.67;;;2.97;;
2338;SDS011;1180;51.438;6.978;2022-12-07T14:58:55;4.60;;;2.57;;
2338;SDS011;1180;51.438;6.978;2022-12-07T15:01:20;5.10;;;3.03;;
2338;SDS011;1180;51.438;6.978;2022-12-07T15:03:48;8.23;;;2.93;;
2338;SDS011;1180;51.438;6.978;2022-12-07T15:06:16;6.40;;;2.90;;
2338;SDS011;1180;51.438;6.978;2022-12-07T15:08:42;6.50;;;3.23;;
2338;SDS011;1180;51.438;6.978;2022-12-07T15:11:18;3.07;;;2.87;;
2338;SDS011;1180;51.438;6.978;2022-12-07T15:13:43;5.87;;;3.37;;
2338;SDS011;1180;51.438;6.978;2022-12-07T15:16:27;6.63;;;2.83;;
2338;SDS011;1180;51.438;6.978;2022-12-07T15:18:53;4.33;;;2.70;;
2338;SDS011;1180;51.438;6.978;2022-12-07T15:21:18;6.47;;;3.17;;
2338;SDS011;1180;51.438;6.978;2022-12-07T15:23:43;6.77;;;3.50;;
2338;SDS011;1180;51.438;6.978;2022-12-07T15:26:12;6.87;;;3.20;;
2338;SDS011;1180;51.438;6.978;2022-12-07T15:28:38;4.03;;;2.77;;
2338;SDS011;1180;51.438;6.978;2022-12-07T15:31:10;6.90;;;3.23;;
2338;SDS011;1180;51.438;6.978;2022-12-07T15:33:36;9.33;;;3.47;;
2338;SDS011;1180;51.438;6.978;2022-12-07T15:36:02;5.70;;;3.00;;
2338;SDS011;1180;51.438;6.978;2022-12-07T15:38:27;3.73;;;3.30;;
2338;SDS011;1180;51.438;6.978;2022-12-07T15:40:55;5.27;;;2.80;;
2338;SDS011;1180;51.438;6.978;2022-12-07T15:43:20;8.90;;;2.70;;
2338;SDS011;1180;51.438;6.978;2022-12-07T15:46:04;5.83;;;3.17;;
2338;SDS011;1180;51.438;6.978;2022-12-07T15:48:29;8.10;;;3.30;;
2338;SDS011;1180;51.438;6.978;2022-12-07T15:51:02;9.60;;;2.60;;
2338;SDS011;1180;51.438;6.978;2022-12-07T15:53:29;4.30;;;2.50;;
2338;SDS011;1180;51.438;6.978;2022-12-07T15:55:54;9.40;;;4.73;;
2338;SDS011;1180;51.438;6.978;2022-12-07T15:58:20;8.90;;;3.40;;
2338;SDS011;1180;51.438;6.978;2022-12-07T16:00:46;9.00;;;3.67;;
2338;SDS011;1180;51.438;6.978;2022-12-07T16:03:13;7.17;;;4.33;;
2338;SDS011;1180;51.438;6.978;2022-12-07T16:05:39;8.27;;;4.10;;
2338;SDS011;1180;51.438;6.978;2022-12-07T16:08:04;8.00;;;4.03;;
2338;SDS011;1180;51.438;6.978;2022-12-07T16:10:30;4.07;;;3.40;;
2338;SDS011;1180;51.438;6.978;2022-12-07T16:12:55;6.43;;;4.13;;
2338;SDS011;1180;51.438;6.978;2022-12-07T16:15:20;4.20;;;3.13;;
2338;SDS011;1180;51.438;6.978;2022-12-07T16:17:46;6.40;;;3.67;;
2338;SDS011;1180;51.438;6.978;2022-12-07T16:20:11;8.47;;;3.87;;
2338;SDS011;1180;51.438;6.978;2022-12-07T16:22:37;6.13;;;4.13;;
2338;SDS011;1180;51.438;6.978;2022-12-07T16:25:02;8.60;;;4.20;;
2338;SDS011;1180;51.438;6.978;2022-12-07T16:27:28;5.93;;;3.50;;
2338;SDS011;1180;51.438;6.978;2022-12-07T16:29:53;8.27;;;4.00;;
2338;SDS011;1180;51.438;6.978;2022-12-07T16:32:19;7.83;;;3.93;;
2338;SDS011;1180;51.438;6.978;2022-12-07T16:34:44;5.20;;;4.43;;
2338;SDS011;1180;51.438;6.978;2022-12-07T16:37:09;6.97;;;4.00;;
2338;SDS011;1180;51.438;6.978;2022-12-07T16:39:35;10.90;;;4.10;;
2338;SDS011;1180;51.438;6.978;2022-12-07T16:42:00;7.90;;;4.00;;
2338;SDS011;1180;51.438;6.978;2022-12-07T16:44:26;8.37;;;4.80;;
2338;SDS011;1180;51.438;6.978;2022-12-07T16:46:52;9.80;;;4.53;;
2338;SDS011;1180;51.438;6.978;2022-12-07T16:49:17;5.13;;;4.00;;
2338;SDS011;1180;51.438;6.978;2022-12-07T16:51:43;6.27;;;4.13;;
2338;SDS011;1180;51.438;6.978;2022-12-07T16:54:10;7.90;;;4.50;;
2338;SDS011;1180;51.438;6.978;2022-12-07T16:56:37;8.63;;;4.73;;
2338;SDS011;1180;51.438;6.978;2022-12-07T16:59:02;6.20;;;3.87;;
2338;SDS011;1180;51.438;6.978;2022-12-07T17:01:28;8.37;;;4.70;;
2338;SDS011;1180;51.438;6.978;2022-12-07T17:03:54;7.97;;;4.20;;
2338;SDS011;1180;51.438;6.978;2022-12-07T17:06:21;7.67;;;4.07;;
2338;SDS011;1180;51.438;6.978;2022-12-07T17:08:49;6.70;;;3.90;;
2338;SDS011;1180;51.438;6.978;2022-12-07T17:11:17;9.90;;;3.87;;
2338;SDS011;1180;51.438;6.978;2022-12-07T17:13:44;9.53;;;4.83;;
2338;SDS011;1180;51.438;6.978;2022-12-07T17:16:29;7.67;;;4.70;;
2338;SDS011;1180;51.438;6.978;2022-12-07T17:18:54;4.93;;;3.90;;
2338;SDS011;1180;51.438;6.978;2022-12-07T17:21:20;10.97;;;5.40;;